CheckWX is a tool to help pilots better visualize weather data.  It is not intended as a substitute for an official pre-flight weather briefing.

16:11:25 UTC

KPIE METAR
St Pete-Clearwater International Airport
Clearwater, Florida, USA
Current

18 mins ago

KPIE 261553Z VRB06KT 10SM CLR 28/21 A3015 RMK AO2 SLP210 T02780211
Observed
May-26 @ 15:53 UTC
Wind
  • Variable at 6 KTS
Visibility
10 SM
Flight Rules
VFR
Cloud Levels
  • Clear skies
Temperature
28°C / 82°F
Dewpoint
21°C / 70°F
Heat Index
30°C / 86°F
Humidity
66%
Altimeter
30.15" Hg
Pressure
1021.02 hPa
Previous

1 hour ago

KPIE 261453Z 07007KT 10SM CLR 27/22 A3016 RMK AO2 SLP211 T02720217 50000
Observed
May-26 @ 14:53 UTC
Wind
  • 070° at 7 KTS
Visibility
10 SM
Flight Rules
VFR
Cloud Levels
  • Clear skies
Temperature
27°C / 81°F
Dewpoint
22°C / 72°F
Heat Index
29°C / 85°F
Humidity
74%
Altimeter
30.16" Hg
Pressure
1021.32 hPa
Previous

2 hours ago

KPIE 261353Z 11008KT 10SM FEW019 27/22 A3016 RMK AO2 SLP214 T02670217
Observed
May-26 @ 13:53 UTC
Wind
  • 110° at 8 KTS
Visibility
10 SM
Flight Rules
VFR
Cloud Levels
  • Few at 1,900' AGL
Temperature
27°C / 81°F
Dewpoint
22°C / 72°F
Heat Index
29°C / 85°F
Humidity
74%
Altimeter
30.16" Hg
Pressure
1021.32 hPa